Buoy 56564

sailwx.info

Track history (hours):
 
Tides and Currents Weather Stations Pressure Air Temp Water Temp Dewpoint Dewpoint Depression Visibility Wind Speed Wind Dir Waves Ship Positions

Drifting buoy 56564

Last reported at 2017-Feb-20 16:30 UTC. Time now 2017-Feb-20 18:38 UTC.
Position S 27°59' E 073°42'.

Barometer 1025.2 mb
Water temperature 25.3 ° C

Date/timePositionNaut miles runAvg speedWind from/ knotsBaromVisibWave heightAir tempDewpointWater temp
2017-Feb-20 16:30S 27°59' E 073°42'1 0.6 1025.2 25.3
2017-Feb-20 15:30S 27°59' E 073°42'0 0.0 1025.1 25.3
2017-Feb-20 14:40S 27°59' E 073°42'1 1.0 1024.6 25.4
2017-Feb-20 13:30S 27°58' E 073°43'0 0.0 1024.0 25.5
2017-Feb-20 12:40S 27°58' E 073°43'1 0.5 1023.8 25.5
2017-Feb-20 11:40S 27°58' E 073°44'2 0.7 1023.9 25.5
2017-Feb-20 09:30S 27°57' E 073°45'4 3.7 1024.0 25.4
2017-Feb-20 08:30S 27°55' E 073°49'1 0.1 1024.7 25.4
2017-Feb-20 04:30S 27°55' E 073°49'0 0.0 1025.3 25.3
2017-Feb-20 03:30S 27°55' E 073°49'4 4.5 1025.7 25.3
2017-Feb-20 02:40S 27°55' E 073°53'1 0.6 1025.4 25.3
2017-Feb-20 00:30S 27°55' E 073°52'1 1.0 1024.5 25.5
2017-Feb-19 23:40S 27°55' E 073°52'1 0.5 1024.1 25.5
2017-Feb-19 22:40S 27°55' E 073°52'3 2.3 1024.0 25.5
2017-Feb-19 21:30S 27°55' E 073°55'3 0.7 1024.1 25.6
2017-Feb-19 16:40S 27°52' E 073°58'3 2.3 1026.4 25.7
2017-Feb-19 15:30S 27°52' E 074°01'1 0.7 1026.2 25.8
2017-Feb-19 13:40S 27°52' E 073°59'3 2.9 1025.2 25.9
2017-Feb-19 12:30S 27°51' E 074°03'3 2.9 1024.7 25.9
2017-Feb-19 11:30S 27°50' E 074°06'0 0.0 1024.4 26.0
2017-Feb-19 09:40S 27°50' E 074°06'0 0.0 1024.5 26.0
2017-Feb-19 08:30S 27°50' E 074°06'3 0.9 1025.0 26.0
2017-Feb-19 04:40S 27°49' E 074°10'2 0.6 1025.2 26.0
2017-Feb-19 01:30S 27°47' E 074°11'1 1.4 1024.3 26.0
2017-Feb-19 00:40S 27°46' E 074°11'1 1.0 1023.7 26.0
2017-Feb-18 23:30S 27°47' E 074°11'2 1.0 1023.1 26.0
2017-Feb-18 21:40S 27°46' E 074°12'2 0.6 1023.0 26.0
2017-Feb-18 17:30S 27°44' E 074°14'2 0.9 1023.0 26.0
2017-Feb-18 15:30S 27°42' E 074°14'0 0.0 1022.4 26.0
2017-Feb-18 14:30S 27°42' E 074°14'1 0.7 1021.7 26.0
2017-Feb-18 13:40S 27°41' E 074°14'2 1.6 1020.6 26.0
2017-Feb-18 12:30S 27°40' E 074°13'1 1.4 1020.0 26.0
2017-Feb-18 11:40S 27°38' E 074°13'0 0.0 1019.8 26.0
2017-Feb-18 10:30S 27°38' E 074°13'1 1.4 1019.6 26.0
2017-Feb-18 09:40S 27°37' E 074°13'4 0.8 1019.6 25.9
2017-Feb-18 04:30S 27°34' E 074°11'0 0.0 1018.8 26.0
2017-Feb-18 03:40S 27°34' E 074°11'2 2.4 1018.5 26.2
2017-Feb-18 02:40S 27°32' E 074°10'1 0.6 1017.3 26.2
2017-Feb-18 01:40S 27°31' E 074°10'1 1.2 1016.4 26.3
2017-Feb-18 00:40S 27°30' E 074°10'3 0.8 1015.0 26.4
2017-Feb-17 21:30S 27°28' E 074°08'5 1.4 1014.2 26.4
2017-Feb-17 17:40S 27°23' E 074°06'3 3.2 1014.6 26.4
2017-Feb-17 16:40S 27°20' E 074°04'0 0.0 1014.4 26.4
2017-Feb-17 15:30S 27°20' E 074°04'1 0.3 1014.2 26.4
2017-Feb-17 13:30S 27°20' E 074°04'2 2.7 1012.8 26.4
2017-Feb-17 12:40S 27°19' E 074°01'2 1.0 1012.9 26.4
2017-Feb-17 10:40S 27°18' E 073°59'7 3.3 1012.2 26.5
2017-Feb-17 08:30S 27°12' E 073°55'1 0.2 1012.3 26.6
2017-Feb-17 05:40S 27°13' E 073°55'1 0.7 1013.7 26.5
2017-Feb-17 04:30S 27°12' E 073°55'3 1.6 1014.1 26.5
2017-Feb-17 02:40S 27°10' E 073°53'1 0.5 1013.7 26.5
2017-Feb-17 01:40S 27°10' E 073°52'2 2.0 1013.5 26.5
2017-Feb-17 00:40S 27°08' E 073°50'0 0.0 1013.0 26.5
2017-Feb-16 23:40S 27°08' E 073°50'2 0.9 1012.9 26.6
2017-Feb-16 21:40S 27°08' E 073°49'2 2.1 1013.4 26.6
2017-Feb-16 20:40S 27°08' E 073°46'0 0.0 1014.1 26.6
2017-Feb-16 19:40S 27°08' E 073°46'1 0.6 1014.7 26.7
2017-Feb-16 17:40S 27°07' E 073°46'1 1.1 1015.5 26.7
2017-Feb-16 16:40S 27°07' E 073°45'2 1.2 1015.7 26.7
2017-Feb-16 14:40S 27°05' E 073°43'0 0.0 1014.8 26.7
2017-Feb-16 13:30S 27°05' E 073°43'1 1.0 1014.5 26.8
2017-Feb-16 12:40S 27°05' E 073°42'1 0.6 1014.6 26.8
2017-Feb-16 10:40S 27°04' E 073°41'2 0.5 1014.9 26.8
2017-Feb-16 05:30S 27°02' E 073°39'1 0.6 1017.7 26.4
2017-Feb-16 04:30S 27°02' E 073°39'1 0.6 1017.8 26.4
2017-Feb-16 03:40S 27°02' E 073°38'0 0.0 1017.9 26.4
2017-Feb-16 01:40S 27°02' E 073°38'1 0.7 1017.8 26.4
2017-Feb-16 00:30S 27°02' E 073°38'1 0.4 1017.6 26.4
2017-Feb-15 21:30S 27°03' E 073°37'2 0.4 1017.9 26.4
2017-Feb-15 17:40S 27°03' E 073°35'0 0.0 1020.0 26.4
2017-Feb-15 16:30S 27°03' E 073°35'1 0.5 1020.4 26.4
2017-Feb-15 14:30S 27°03' E 073°34'0 0.0 1019.7 26.4
2017-Feb-15 13:30S 27°03' E 073°34'1 0.8 1019.5 26.4
2017-Feb-15 12:30S 27°02' E 073°33'0 0.0 1019.2 26.4
2017-Feb-15 10:40S 27°02' E 073°33'1 1.1 1019.6 26.5
2017-Feb-15 09:30S 27°01' E 073°32'0 0.0 1019.9 26.4
2017-Feb-15 05:30S 27°01' E 073°32'0 0.0 1022.0 26.4
2017-Feb-15 04:40S 27°01' E 073°32'1 1.1 1022.1 26.4
2017-Feb-15 03:40S 27°01' E 073°31'1 0.4 1022.0 26.4
2017-Feb-15 01:40S 27°02' E 073°32'1 0.7 1021.5 26.4
2017-Feb-15 00:30S 27°01' E 073°31'1 0.3 1021.0 26.4
2017-Feb-14 22:40S 27°01' E 073°31'1 0.2 1020.6 26.4
2017-Feb-14 17:40S 27°01' E 073°29'1 0.5 1022.0 26.4
2017-Feb-14 16:30S 27°01' E 073°29'1 0.4 1022.1 26.5
2017-Feb-14 14:40S 27°01' E 073°28'1 0.6 1021.2 26.5
2017-Feb-14 13:40S 27°00' E 073°28'1 0.3 1020.6 26.5
2017-Feb-14 10:30S 26°59' E 073°28'0 0.0 1019.7 26.6
2017-Feb-14 09:40S 26°59' E 073°28'0 0.0 1019.8 26.5
2017-Feb-14 04:40S 26°59' E 073°28'0 0.0 1021.6 26.4
2017-Feb-14 03:40S 26°59' E 073°28'0 0.0 1021.4 26.3
2017-Feb-14 02:40S 26°59' E 073°28'1 0.8 1021.3 26.3
2017-Feb-14 01:40S 26°59' E 073°27'0 0.0 1021.1 26.3
2017-Feb-14 00:40S 26°59' E 073°27'1 0.5 1020.2 26.4
2017-Feb-13 22:40S 26°59' E 073°26'2 0.5 1019.8 26.4
2017-Feb-13 17:30S 26°57' E 073°24'1 0.2 1021.1 26.4
2017-Feb-13 14:40S 26°56' E 073°24'0 0.0 1020.2 26.4
2017-Feb-13 13:40S 26°56' E 073°24'1 0.6 1019.4 26.4
2017-Feb-13 12:40S 26°56' E 073°24'1 1.2 1018.7 26.4
2017-Feb-13 11:40S 26°56' E 073°23'3 1.4 1018.3 26.4
2017-Feb-13 09:30S 26°53' E 073°23'0 0.0 1018.4 26.4
2017-Feb-13 04:30S 26°53' E 073°23'0 0.0 1018.5 26.4
2017-Feb-13 03:30S 26°53' E 073°23'0 0.0 1018.6 26.4
2017-Feb-13 02:30S 26°53' E 073°23'1 0.6 1018.2 26.4
2017-Feb-13 01:40S 26°53' E 073°23'1 0.5 1017.9 26.4
2017-Feb-13 00:30S 26°53' E 073°22'0 0.0 1016.9 26.4
2017-Feb-12 23:40S 26°53' E 073°22'0 0.0 1016.2 26.4
2017-Feb-12 22:30S 26°53' E 073°22'3 1.4 1016.1 26.4
2017-Feb-12 20:30S 26°52' E 073°20'1 0.2 1016.6 26.4
2017-Feb-12 17:30S 26°52' E 073°19'1 0.4 1017.6 26.4
2017-Feb-12 15:30S 26°51' E 073°19'1 0.7 1017.1 26.5
2017-Feb-12 13:30S 26°50' E 073°18'1 1.0 1015.9 26.5
2017-Feb-12 12:40S 26°49' E 073°17'1 0.5 1015.1 26.5
2017-Feb-12 11:30S 26°49' E 073°17'1 0.7 1014.9 26.5
2017-Feb-12 09:40S 26°48' E 073°16'2 0.6 1014.8 26.5
2017-Feb-12 05:40S 26°46' E 073°18'1 0.7 1015.6 26.4
2017-Feb-12 04:30S 26°46' E 073°19'0 0.0 1015.6 26.4
2017-Feb-12 02:40S 26°46' E 073°19'1 0.8 1015.2 26.4
2017-Feb-12 01:40S 26°46' E 073°19'0 0.0 1014.5 26.4
2017-Feb-12 00:30S 26°46' E 073°19'2 0.9 1014.2 26.4
2017-Feb-11 22:40S 26°46' E 073°17'1 0.5 1013.9 26.4
2017-Feb-11 21:40S 26°46' E 073°17'2 0.5 1014.2 26.4
2017-Feb-11 18:30S 26°46' E 073°15'1 0.8 1015.2 26.4
2017-Feb-11 17:30S 26°45' E 073°14'0 0.0 1015.6 26.4
2017-Feb-11 16:40S 26°45' E 073°14'1 1.1 1016.0 26.5
2017-Feb-11 15:30S 26°44' E 073°13'1 0.3 1015.9 26.6
2017-Feb-11 13:30S 26°44' E 073°13'2 1.0 1015.3 26.6
2017-Feb-11 11:30S 26°43' E 073°11'1 0.7 1014.8 26.7
2017-Feb-11 09:40S 26°41' E 073°11'1 0.5 1014.8 26.6
2017-Feb-11 08:40S 26°41' E 073°12'2 0.8 1015.1 26.6
2017-Feb-11 05:40S 26°39' E 073°13'1 0.7 1016.2 26.5
2017-Feb-11 04:30S 26°38' E 073°13'0 0.0 1016.5 26.4
2017-Feb-11 03:40S 26°38' E 073°13'1 0.7 1016.4 26.4
2017-Feb-11 02:30S 26°38' E 073°14'1 1.0 1016.1 26.4
2017-Feb-11 01:40S 26°38' E 073°14'1 0.5 1016.1 26.4
2017-Feb-11 00:40S 26°38' E 073°14'2 0.7 1015.6 26.4
2017-Feb-10 22:30S 26°40' E 073°15'0 0.0 1015.7 26.4
2017-Feb-10 21:40S 26°40' E 073°15'2 0.5 1016.0 26.4
2017-Feb-10 18:30S 26°40' E 073°13'1 0.3 1017.4 26.6
2017-Feb-10 16:40S 26°40' E 073°13'   1017.8 26.6
Track history (hours):
 
Tides and Currents Weather Stations Pressure Air Temp Water Temp Dewpoint Dewpoint Depression Visibility Wind Speed Wind Dir Waves Ship Positions

Drifting buoy 56564

Last reported at 2017-Feb-20 16:30 UTC. Time now 2017-Feb-20 18:38 UTC.
Position S 27°59' E 073°42'.

Barometer 1025.2 mb
Water temperature 25.3 ° C

Date/timePositionNaut miles runAvg speedWind from/ knotsBaromVisibWave heightAir tempDewpointWater temp
2017-Feb-20 16:30S 27°59' E 073°42'1 0.6 1025.2 25.3
2017-Feb-20 15:30S 27°59' E 073°42'0 0.0 1025.1 25.3
2017-Feb-20 14:40S 27°59' E 073°42'1 1.0 1024.6 25.4
2017-Feb-20 13:30S 27°58' E 073°43'0 0.0 1024.0 25.5
2017-Feb-20 12:40S 27°58' E 073°43'1 0.5 1023.8 25.5
2017-Feb-20 11:40S 27°58' E 073°44'2 0.7 1023.9 25.5
2017-Feb-20 09:30S 27°57' E 073°45'4 3.7 1024.0 25.4
2017-Feb-20 08:30S 27°55' E 073°49'1 0.1 1024.7 25.4
2017-Feb-20 04:30S 27°55' E 073°49'0 0.0 1025.3 25.3
2017-Feb-20 03:30S 27°55' E 073°49'4 4.5 1025.7 25.3
2017-Feb-20 02:40S 27°55' E 073°53'1 0.6 1025.4 25.3
2017-Feb-20 00:30S 27°55' E 073°52'1 1.0 1024.5 25.5
2017-Feb-19 23:40S 27°55' E 073°52'1 0.5 1024.1 25.5
2017-Feb-19 22:40S 27°55' E 073°52'3 2.3 1024.0 25.5
2017-Feb-19 21:30S 27°55' E 073°55'3 0.7 1024.1 25.6
2017-Feb-19 16:40S 27°52' E 073°58'3 2.3 1026.4 25.7
2017-Feb-19 15:30S 27°52' E 074°01'1 0.7 1026.2 25.8
2017-Feb-19 13:40S 27°52' E 073°59'3 2.9 1025.2 25.9
2017-Feb-19 12:30S 27°51' E 074°03'3 2.9 1024.7 25.9
2017-Feb-19 11:30S 27°50' E 074°06'0 0.0 1024.4 26.0
2017-Feb-19 09:40S 27°50' E 074°06'0 0.0 1024.5 26.0
2017-Feb-19 08:30S 27°50' E 074°06'3 0.9 1025.0 26.0
2017-Feb-19 04:40S 27°49' E 074°10'2 0.6 1025.2 26.0
2017-Feb-19 01:30S 27°47' E 074°11'1 1.4 1024.3 26.0
2017-Feb-19 00:40S 27°46' E 074°11'1 1.0 1023.7 26.0
2017-Feb-18 23:30S 27°47' E 074°11'2 1.0 1023.1 26.0
2017-Feb-18 21:40S 27°46' E 074°12'2 0.6 1023.0 26.0
2017-Feb-18 17:30S 27°44' E 074°14'2 0.9 1023.0 26.0
2017-Feb-18 15:30S 27°42' E 074°14'0 0.0 1022.4 26.0
2017-Feb-18 14:30S 27°42' E 074°14'1 0.7 1021.7 26.0
2017-Feb-18 13:40S 27°41' E 074°14'2 1.6 1020.6 26.0
2017-Feb-18 12:30S 27°40' E 074°13'1 1.4 1020.0 26.0
2017-Feb-18 11:40S 27°38' E 074°13'0 0.0 1019.8 26.0
2017-Feb-18 10:30S 27°38' E 074°13'1 1.4 1019.6 26.0
2017-Feb-18 09:40S 27°37' E 074°13'4 0.8 1019.6 25.9
2017-Feb-18 04:30S 27°34' E 074°11'0 0.0 1018.8 26.0
2017-Feb-18 03:40S 27°34' E 074°11'2 2.4 1018.5 26.2
2017-Feb-18 02:40S 27°32' E 074°10'1 0.6 1017.3 26.2
2017-Feb-18 01:40S 27°31' E 074°10'1 1.2 1016.4 26.3
2017-Feb-18 00:40S 27°30' E 074°10'3 0.8 1015.0 26.4
2017-Feb-17 21:30S 27°28' E 074°08'5 1.4 1014.2 26.4
2017-Feb-17 17:40S 27°23' E 074°06'3 3.2 1014.6 26.4
2017-Feb-17 16:40S 27°20' E 074°04'0 0.0 1014.4 26.4
2017-Feb-17 15:30S 27°20' E 074°04'1 0.3 1014.2 26.4
2017-Feb-17 13:30S 27°20' E 074°04'2 2.7 1012.8 26.4
2017-Feb-17 12:40S 27°19' E 074°01'2 1.0 1012.9 26.4
2017-Feb-17 10:40S 27°18' E 073°59'7 3.3 1012.2 26.5
2017-Feb-17 08:30S 27°12' E 073°55'1 0.2 1012.3 26.6
2017-Feb-17 05:40S 27°13' E 073°55'1 0.7 1013.7 26.5
2017-Feb-17 04:30S 27°12' E 073°55'3 1.6 1014.1 26.5
2017-Feb-17 02:40S 27°10' E 073°53'1 0.5 1013.7 26.5
2017-Feb-17 01:40S 27°10' E 073°52'2 2.0 1013.5 26.5
2017-Feb-17 00:40S 27°08' E 073°50'0 0.0 1013.0 26.5
2017-Feb-16 23:40S 27°08' E 073°50'2 0.9 1012.9 26.6
2017-Feb-16 21:40S 27°08' E 073°49'2 2.1 1013.4 26.6
2017-Feb-16 20:40S 27°08' E 073°46'0 0.0 1014.1 26.6
2017-Feb-16 19:40S 27°08' E 073°46'1 0.6 1014.7 26.7
2017-Feb-16 17:40S 27°07' E 073°46'1 1.1 1015.5 26.7
2017-Feb-16 16:40S 27°07' E 073°45'2 1.2 1015.7 26.7
2017-Feb-16 14:40S 27°05' E 073°43'0 0.0 1014.8 26.7
2017-Feb-16 13:30S 27°05' E 073°43'1 1.0 1014.5 26.8
2017-Feb-16 12:40S 27°05' E 073°42'1 0.6 1014.6 26.8
2017-Feb-16 10:40S 27°04' E 073°41'2 0.5 1014.9 26.8
2017-Feb-16 05:30S 27°02' E 073°39'1 0.6 1017.7 26.4
2017-Feb-16 04:30S 27°02' E 073°39'1 0.6 1017.8 26.4
2017-Feb-16 03:40S 27°02' E 073°38'0 0.0 1017.9 26.4
2017-Feb-16 01:40S 27°02' E 073°38'1 0.7 1017.8 26.4
2017-Feb-16 00:30S 27°02' E 073°38'1 0.4 1017.6 26.4
2017-Feb-15 21:30S 27°03' E 073°37'2 0.4 1017.9 26.4
2017-Feb-15 17:40S 27°03' E 073°35'0 0.0 1020.0 26.4
2017-Feb-15 16:30S 27°03' E 073°35'1 0.5 1020.4 26.4
2017-Feb-15 14:30S 27°03' E 073°34'0 0.0 1019.7 26.4
2017-Feb-15 13:30S 27°03' E 073°34'1 0.8 1019.5 26.4
2017-Feb-15 12:30S 27°02' E 073°33'0 0.0 1019.2 26.4
2017-Feb-15 10:40S 27°02' E 073°33'1 1.1 1019.6 26.5
2017-Feb-15 09:30S 27°01' E 073°32'0 0.0 1019.9 26.4
2017-Feb-15 05:30S 27°01' E 073°32'0 0.0 1022.0 26.4
2017-Feb-15 04:40S 27°01' E 073°32'1 1.1 1022.1 26.4
2017-Feb-15 03:40S 27°01' E 073°31'1 0.4 1022.0 26.4
2017-Feb-15 01:40S 27°02' E 073°32'1 0.7 1021.5 26.4
2017-Feb-15 00:30S 27°01' E 073°31'1 0.3 1021.0 26.4
2017-Feb-14 22:40S 27°01' E 073°31'1 0.2 1020.6 26.4
2017-Feb-14 17:40S 27°01' E 073°29'1 0.5 1022.0 26.4
2017-Feb-14 16:30S 27°01' E 073°29'1 0.4 1022.1 26.5
2017-Feb-14 14:40S 27°01' E 073°28'1 0.6 1021.2 26.5
2017-Feb-14 13:40S 27°00' E 073°28'1 0.3 1020.6 26.5
2017-Feb-14 10:30S 26°59' E 073°28'0 0.0 1019.7 26.6
2017-Feb-14 09:40S 26°59' E 073°28'0 0.0 1019.8 26.5
2017-Feb-14 04:40S 26°59' E 073°28'0 0.0 1021.6 26.4
2017-Feb-14 03:40S 26°59' E 073°28'0 0.0 1021.4 26.3
2017-Feb-14 02:40S 26°59' E 073°28'1 0.8 1021.3 26.3
2017-Feb-14 01:40S 26°59' E 073°27'0 0.0 1021.1 26.3
2017-Feb-14 00:40S 26°59' E 073°27'1 0.5 1020.2 26.4
2017-Feb-13 22:40S 26°59' E 073°26'2 0.5 1019.8 26.4
2017-Feb-13 17:30S 26°57' E 073°24'1 0.2 1021.1 26.4
2017-Feb-13 14:40S 26°56' E 073°24'0 0.0 1020.2 26.4
2017-Feb-13 13:40S 26°56' E 073°24'1 0.6 1019.4 26.4
2017-Feb-13 12:40S 26°56' E 073°24'1 1.2 1018.7 26.4
2017-Feb-13 11:40S 26°56' E 073°23'3 1.4 1018.3 26.4
2017-Feb-13 09:30S 26°53' E 073°23'0 0.0 1018.4 26.4
2017-Feb-13 04:30S 26°53' E 073°23'0 0.0 1018.5 26.4
2017-Feb-13 03:30S 26°53' E 073°23'0 0.0 1018.6 26.4
2017-Feb-13 02:30S 26°53' E 073°23'1 0.6 1018.2 26.4
2017-Feb-13 01:40S 26°53' E 073°23'1 0.5 1017.9 26.4
2017-Feb-13 00:30S 26°53' E 073°22'0 0.0 1016.9 26.4
2017-Feb-12 23:40S 26°53' E 073°22'0 0.0 1016.2 26.4
2017-Feb-12 22:30S 26°53' E 073°22'3 1.4 1016.1 26.4
2017-Feb-12 20:30S 26°52' E 073°20'1 0.2 1016.6 26.4
2017-Feb-12 17:30S 26°52' E 073°19'1 0.4 1017.6 26.4
2017-Feb-12 15:30S 26°51' E 073°19'1 0.7 1017.1 26.5
2017-Feb-12 13:30S 26°50' E 073°18'1 1.0 1015.9 26.5
2017-Feb-12 12:40S 26°49' E 073°17'1 0.5 1015.1 26.5
2017-Feb-12 11:30S 26°49' E 073°17'1 0.7 1014.9 26.5
2017-Feb-12 09:40S 26°48' E 073°16'2 0.6 1014.8 26.5
2017-Feb-12 05:40S 26°46' E 073°18'1 0.7 1015.6 26.4
2017-Feb-12 04:30S 26°46' E 073°19'0 0.0 1015.6 26.4
2017-Feb-12 02:40S 26°46' E 073°19'1 0.8 1015.2 26.4
2017-Feb-12 01:40S 26°46' E 073°19'0 0.0 1014.5 26.4
2017-Feb-12 00:30S 26°46' E 073°19'2 0.9 1014.2 26.4
2017-Feb-11 22:40S 26°46' E 073°17'1 0.5 1013.9 26.4
2017-Feb-11 21:40S 26°46' E 073°17'2 0.5 1014.2 26.4
2017-Feb-11 18:30S 26°46' E 073°15'1 0.8 1015.2 26.4
2017-Feb-11 17:30S 26°45' E 073°14'0 0.0 1015.6 26.4
2017-Feb-11 16:40S 26°45' E 073°14'1 1.1 1016.0 26.5
2017-Feb-11 15:30S 26°44' E 073°13'1 0.3 1015.9 26.6
2017-Feb-11 13:30S 26°44' E 073°13'2 1.0 1015.3 26.6
2017-Feb-11 11:30S 26°43' E 073°11'1 0.7 1014.8 26.7
2017-Feb-11 09:40S 26°41' E 073°11'1 0.5 1014.8 26.6
2017-Feb-11 08:40S 26°41' E 073°12'2 0.8 1015.1 26.6
2017-Feb-11 05:40S 26°39' E 073°13'1 0.7 1016.2 26.5
2017-Feb-11 04:30S 26°38' E 073°13'0 0.0 1016.5 26.4
2017-Feb-11 03:40S 26°38' E 073°13'1 0.7 1016.4 26.4
2017-Feb-11 02:30S 26°38' E 073°14'1 1.0 1016.1 26.4
2017-Feb-11 01:40S 26°38' E 073°14'1 0.5 1016.1 26.4
2017-Feb-11 00:40S 26°38' E 073°14'2 0.7 1015.6 26.4
2017-Feb-10 22:30S 26°40' E 073°15'0 0.0 1015.7 26.4
2017-Feb-10 21:40S 26°40' E 073°15'2 0.5 1016.0 26.4
2017-Feb-10 18:30S 26°40' E 073°13'1 0.3 1017.4 26.6
2017-Feb-10 16:40S 26°40' E 073°13'   1017.8 26.6

Dump ship's entire track history